Time;durP1;ratioP1;P1;durP2;ratioP2;P2;SDS_P1;SDS_P2;PMS_P1;PMS_P2;Temp;Humidity;BMP_temperature;BMP_pressure;BME280_temperature;BME280_humidity;BME280_pressure;Samples;Min_cycle;Max_cycle;Signal;HPM_P1;HPM_P2
2022/12/31 00:01:55;;;;;;;1.30;0.70;;;13.60;97.70;;;;;;5053321;28;20503;-68
2022/12/31 00:04:21;;;;;;;2.95;0.80;;;13.50;97.80;;;;;;5054815;28;20059;-68
2022/12/31 00:06:46;;;;;;;1.80;0.65;;;13.60;97.60;;;;;;5045315;28;20087;-67
2022/12/31 00:09:12;;;;;;;2.42;0.77;;;13.60;97.40;;;;;;5053071;28;20013;-69
2022/12/31 00:11:38;;;;;;;1.27;0.70;;;13.60;97.30;;;;;;5048634;28;20029;-68
2022/12/31 00:14:04;;;;;;;1.77;0.70;;;13.60;97.40;;;;;;5052011;28;20484;-68
2022/12/31 00:16:38;;;;;;;2.05;0.70;;;13.60;97.40;;;;;;5059849;28;20028;-68
2022/12/31 00:19:05;;;;;;;1.25;0.70;;;13.70;97.10;;;;;;5055366;28;20029;-68
2022/12/31 00:21:32;;;;;;;2.90;0.80;;;13.70;97.00;;;;;;5056452;28;20033;-68
2022/12/31 00:23:59;;;;;;;1.30;0.70;;;13.70;97.00;;;;;;5053065;28;20381;-70
2022/12/31 00:26:27;;;;;;;1.63;0.70;;;13.70;96.90;;;;;;5056489;28;20322;-70
2022/12/31 00:28:55;;;;;;;1.38;0.70;;;13.70;97.00;;;;;;5051924;28;20430;-71
2022/12/31 00:31:23;;;;;;;0.98;0.68;;;13.60;97.30;;;;;;5056483;28;20025;-69
2022/12/31 00:33:52;;;;;;;1.08;0.70;;;13.60;97.60;;;;;;5049563;28;20021;-68
2022/12/31 00:36:23;;;;;;;1.98;0.75;;;13.50;97.70;;;;;;5043527;28;20021;-69
2022/12/31 00:38:51;;;;;;;1.23;0.70;;;13.40;97.90;;;;;;5054278;28;20033;-68
2022/12/31 00:41:18;;;;;;;1.83;0.80;;;13.50;97.40;;;;;;5054587;28;20116;-68
2022/12/31 00:43:47;;;;;;;2.85;0.93;;;13.50;97.30;;;;;;5053748;28;20053;-66
2022/12/31 00:46:14;;;;;;;1.17;0.70;;;13.60;97.30;;;;;;5057218;28;20021;-66
2022/12/31 00:48:40;;;;;;;1.80;0.63;;;13.60;97.20;;;;;;5051191;28;20025;-66
2022/12/31 00:51:08;;;;;;;1.10;0.60;;;13.60;97.20;;;;;;5053349;28;20109;-67
2022/12/31 00:53:35;;;;;;;2.35;0.80;;;13.60;97.30;;;;;;5043343;28;20080;-67
2022/12/31 00:56:11;;;;;;;1.58;0.70;;;13.50;97.70;;;;;;5051462;28;20589;-67
2022/12/31 00:58:37;;;;;;;1.48;0.80;;;13.40;97.80;;;;;;5052585;28;20013;-66
2022/12/31 01:01:27;;;;;;;1.50;0.70;;;13.40;97.80;;;;;;5055200;28;20078;-67
2022/12/31 01:03:57;;;;;;;2.83;1.00;;;13.40;97.70;;;;;;5050877;28;20104;-67
2022/12/31 01:06:23;;;;;;;2.65;0.95;;;13.40;97.50;;;;;;5051368;28;20477;-68
2022/12/31 01:08:50;;;;;;;1.23;0.60;;;13.50;97.50;;;;;;5052015;28;20028;-67
2022/12/31 01:11:23;;;;;;;1.50;0.82;;;13.50;97.30;;;;;;5054666;28;20028;-67
2022/12/31 01:13:48;;;;;;;1.27;0.70;;;13.50;97.30;;;;;;5052441;28;20017;-67
2022/12/31 01:16:15;;;;;;;1.73;0.70;;;13.60;96.90;;;;;;5055585;28;20025;-67
2022/12/31 01:18:41;;;;;;;1.55;0.70;;;13.60;96.80;;;;;;5053776;28;20026;-67
2022/12/31 01:21:09;;;;;;;2.90;0.80;;;13.70;96.30;;;;;;5035648;28;20075;-67
2022/12/31 01:23:34;;;;;;;1.90;0.80;;;13.80;95.90;;;;;;5047837;28;20356;-68
2022/12/31 01:26:05;;;;;;;2.38;0.80;;;13.80;95.40;;;;;;5047036;28;20123;-67
2022/12/31 01:28:30;;;;;;;1.92;0.95;;;13.90;95.00;;;;;;5053091;28;20029;-66
2022/12/31 01:30:57;;;;;;;2.45;0.82;;;13.90;94.90;;;;;;5048680;28;20040;-67
2022/12/31 01:33:23;;;;;;;2.72;0.90;;;13.90;94.50;;;;;;5044729;28;20024;-67
2022/12/31 01:35:48;;;;;;;2.58;0.68;;;13.90;94.40;;;;;;5049454;28;20033;-67
2022/12/31 01:38:15;;;;;;;2.15;0.70;;;13.90;94.50;;;;;;5044945;28;20029;-67
2022/12/31 01:40:40;;;;;;;2.40;0.60;;;13.80;94.50;;;;;;5047367;28;20029;-68
2022/12/31 01:43:18;;;;;;;2.08;0.80;;;13.90;94.10;;;;;;5046132;28;20299;-67
2022/12/31 01:45:48;;;;;;;1.73;0.75;;;13.90;93.70;;;;;;5045107;28;20096;-67
2022/12/31 01:48:19;;;;;;;2.97;0.90;;;13.90;94.00;;;;;;5038869;28;20044;-67
2022/12/31 01:50:47;;;;;;;1.90;0.75;;;13.80;94.30;;;;;;5052340;28;20044;-68
2022/12/31 01:53:14;;;;;;;0.95;0.70;;;13.80;93.80;;;;;;5043789;28;20481;-67
2022/12/31 01:55:53;;;;;;;1.75;0.75;;;13.90;93.40;;;;;;5042097;28;20042;-66
2022/12/31 01:58:23;;;;;;;0.95;0.63;;;13.90;93.40;;;;;;5042907;28;20028;-67
2022/12/31 02:00:51;;;;;;;2.30;0.80;;;13.90;93.30;;;;;;5047813;28;20029;-67
2022/12/31 02:03:19;;;;;;;1.58;0.70;;;14.00;93.00;;;;;;5054728;28;20439;-68
2022/12/31 02:05:48;;;;;;;2.97;0.80;;;14.00;93.10;;;;;;5045149;28;20068;-67
2022/12/31 02:08:14;;;;;;;1.23;0.65;;;13.90;93.40;;;;;;5050616;28;20033;-68
2022/12/31 02:10:40;;;;;;;2.60;0.80;;;13.90;93.50;;;;;;5049074;28;20425;-68
2022/12/31 02:13:06;;;;;;;3.38;0.95;;;13.90;93.40;;;;;;5051216;28;20075;-67
2022/12/31 02:15:53;;;;;;;3.25;0.90;;;14.00;93.00;;;;;;5046338;28;20037;-67
2022/12/31 02:18:37;;;;;;;2.45;0.70;;;14.20;92.40;;;;;;5041863;28;20490;-67
2022/12/31 02:21:11;;;;;;;1.30;0.70;;;14.30;92.30;;;;;;5039066;28;20036;-67
2022/12/31 02:24:00;;;;;;;1.30;0.70;;;14.30;92.30;;;;;;5038729;28;20104;-68
2022/12/31 02:26:56;;;;;;;2.15;0.63;;;14.20;92.50;;;;;;5044012;28;20037;-67
2022/12/31 02:30:01;;;;;;;1.77;0.70;;;14.30;92.50;;;;;;5043496;28;20103;-68
2022/12/31 02:32:53;;;;;;;1.00;0.60;;;14.20;92.70;;;;;;5049005;28;20048;-68
2022/12/31 02:35:29;;;;;;;2.13;0.77;;;14.20;92.90;;;;;;5049045;28;20438;-67
2022/12/31 02:38:10;;;;;;;2.55;0.90;;;14.20;93.10;;;;;;5039366;28;20025;-67
2022/12/31 02:40:37;;;;;;;2.50;0.88;;;14.20;93.40;;;;;;5045851;28;20032;-67
2022/12/31 02:43:08;;;;;;;2.03;0.90;;;14.20;93.60;;;;;;5051980;28;20051;-67
2022/12/31 02:45:42;;;;;;;1.67;0.70;;;14.20;93.70;;;;;;5048210;28;20033;-67
2022/12/31 02:48:33;;;;;;;2.63;0.80;;;14.20;93.90;;;;;;5042704;28;20088;-68
2022/12/31 02:51:11;;;;;;;2.83;0.70;;;14.30;94.00;;;;;;5062172;28;20275;-68
2022/12/31 02:54:14;;;;;;;1.65;0.70;;;14.30;94.00;;;;;;5047423;28;20040;-68
2022/12/31 02:56:59;;;;;;;1.30;0.68;;;14.30;94.30;;;;;;5038620;28;20087;-67
2022/12/31 03:02:20;;;;;;;1.52;0.60;;;14.40;94.40;;;;;;5043412;28;20450;-68
2022/12/31 03:04:54;;;;;;;1.65;0.70;;;14.40;94.50;;;;;;5039415;28;20052;-68
2022/12/31 03:07:26;;;;;;;1.38;0.65;;;14.30;94.70;;;;;;5052555;28;20068;-68
2022/12/31 03:09:52;;;;;;;2.03;0.77;;;14.40;94.70;;;;;;5043461;28;20017;-66
2022/12/31 03:15:18;;;;;;;2.40;0.60;;;14.40;94.40;;;;;;5046158;28;20063;-67
2022/12/31 03:17:48;;;;;;;1.60;0.60;;;14.50;94.10;;;;;;5041770;28;20040;-67
2022/12/31 03:23:00;;;;;;;2.03;0.80;;;14.50;94.20;;;;;;5037921;28;20072;-69
2022/12/31 03:25:32;;;;;;;2.08;0.63;;;14.50;94.30;;;;;;5051302;28;20513;-68
2022/12/31 03:27:59;;;;;;;1.27;0.63;;;14.50;94.30;;;;;;5048761;28;20017;-66
2022/12/31 03:30:26;;;;;;;1.25;0.60;;;14.40;94.70;;;;;;5046838;28;20025;-68
2022/12/31 03:32:52;;;;;;;0.70;0.55;;;14.40;94.90;;;;;;5048629;28;20321;-69
2022/12/31 03:35:19;;;;;;;1.27;0.60;;;14.40;95.10;;;;;;5044325;28;20037;-68
2022/12/31 03:37:46;;;;;;;1.80;0.70;;;14.40;95.20;;;;;;5043860;28;20060;-68
2022/12/31 03:40:19;;;;;;;0.98;0.60;;;14.50;95.00;;;;;;5046303;28;20025;-68
2022/12/31 03:42:48;;;;;;;2.25;0.80;;;14.50;95.00;;;;;;5046148;28;20029;-68
2022/12/31 03:45:14;;;;;;;1.75;0.70;;;14.50;95.00;;;;;;5038209;28;20033;-68
2022/12/31 03:47:39;;;;;;;1.02;0.57;;;14.50;95.20;;;;;;5045428;28;20029;-68
2022/12/31 03:50:07;;;;;;;1.98;1.00;;;14.50;95.40;;;;;;5047656;28;20088;-67
2022/12/31 03:52:32;;;;;;;1.60;0.60;;;14.50;95.40;;;;;;5044501;28;20025;-68
2022/12/31 03:54:58;;;;;;;2.70;0.80;;;14.50;95.70;;;;;;5048471;28;20082;-67
2022/12/31 03:57:23;;;;;;;1.85;0.57;;;14.50;95.80;;;;;;5053208;28;20114;-68
2022/12/31 03:59:49;;;;;;;1.15;0.60;;;14.50;96.00;;;;;;5049946;28;20467;-68
2022/12/31 04:02:16;;;;;;;0.93;0.50;;;14.50;96.00;;;;;;5047466;28;20036;-67
2022/12/31 04:04:41;;;;;;;1.17;0.57;;;14.50;95.90;;;;;;5045479;28;20065;-67
2022/12/31 04:07:07;;;;;;;1.25;0.60;;;14.50;96.10;;;;;;5043835;28;20060;-68
2022/12/31 04:09:33;;;;;;;1.52;0.85;;;14.50;96.30;;;;;;5050131;28;20025;-68
2022/12/31 04:11:59;;;;;;;2.15;0.70;;;14.40;96.70;;;;;;5051868;28;20021;-68
2022/12/31 04:14:24;;;;;;;1.75;0.68;;;14.40;96.90;;;;;;5045416;28;20033;-68
2022/12/31 04:16:50;;;;;;;1.30;0.60;;;14.40;97.20;;;;;;5047183;28;20300;-68
2022/12/31 04:19:15;;;;;;;1.50;0.50;;;14.30;97.40;;;;;;5046062;28;20037;-68
2022/12/31 04:21:41;;;;;;;0.95;0.55;;;14.30;97.60;;;;;;5049806;28;20033;-67
2022/12/31 04:24:07;;;;;;;1.55;0.60;;;14.20;97.90;;;;;;5050903;28;20075;-68
2022/12/31 04:26:34;;;;;;;1.17;0.70;;;14.10;98.00;;;;;;5054054;28;20395;-67
2022/12/31 04:28:59;;;;;;;0.80;0.60;;;14.10;98.00;;;;;;5040713;28;20025;-67
2022/12/31 04:31:25;;;;;;;1.17;0.60;;;14.00;98.00;;;;;;5049522;28;20033;-67
2022/12/31 04:33:51;;;;;;;0.95;0.60;;;13.80;98.00;;;;;;5051122;28;20029;-67
2022/12/31 04:36:17;;;;;;;1.85;0.63;;;13.70;98.00;;;;;;5053568;28;20197;-68
2022/12/31 04:38:42;;;;;;;1.55;0.70;;;13.50;98.00;;;;;;5056100;28;20067;-68
2022/12/31 04:41:17;;;;;;;2.00;0.73;;;13.30;98.00;;;;;;5051339;28;20260;-68
2022/12/31 04:43:48;;;;;;;1.20;0.60;;;13.30;98.00;;;;;;5038962;28;20025;-67
2022/12/31 04:46:15;;;;;;;0.75;0.70;;;13.40;98.00;;;;;;5049933;28;20437;-68
2022/12/31 04:48:40;;;;;;;1.27;0.70;;;13.40;98.00;;;;;;5056868;28;20021;-67
2022/12/31 04:51:10;;;;;;;1.55;0.80;;;13.50;98.00;;;;;;5045270;28;20033;-67
2022/12/31 04:53:35;;;;;;;1.15;0.60;;;13.70;98.00;;;;;;5042545;28;20112;-68
2022/12/31 04:56:01;;;;;;;3.40;0.70;;;13.90;98.00;;;;;;5052374;28;20154;-68
2022/12/31 04:58:27;;;;;;;1.95;0.80;;;13.80;98.00;;;;;;5054473;28;20703;-68
2022/12/31 05:00:54;;;;;;;1.50;0.80;;;13.70;98.00;;;;;;5048415;28;20098;-69
2022/12/31 05:03:21;;;;;;;1.58;0.70;;;13.70;98.00;;;;;;5049089;28;20021;-68
2022/12/31 05:05:48;;;;;;;1.75;0.77;;;13.80;98.00;;;;;;5039634;28;20048;-67
2022/12/31 05:08:14;;;;;;;1.27;0.70;;;14.00;98.00;;;;;;5052609;28;20112;-68
2022/12/31 05:10:47;;;;;;;1.48;0.55;;;14.20;98.00;;;;;;5046648;28;20033;-68
2022/12/31 05:13:13;;;;;;;1.90;0.70;;;14.20;97.90;;;;;;5048570;28;20032;-68
2022/12/31 05:15:39;;;;;;;1.08;0.55;;;14.20;97.90;;;;;;5050888;28;20036;-68
2022/12/31 05:18:05;;;;;;;1.73;0.60;;;14.30;97.40;;;;;;5051411;28;20051;-67
2022/12/31 05:20:31;;;;;;;1.02;0.60;;;14.40;97.10;;;;;;5050688;28;20321;-68
2022/12/31 05:22:56;;;;;;;1.65;0.60;;;14.50;96.50;;;;;;5045742;28;20444;-69
2022/12/31 05:25:22;;;;;;;1.10;0.60;;;14.60;96.20;;;;;;5050794;28;20151;-67
2022/12/31 05:27:47;;;;;;;1.33;0.65;;;14.60;96.00;;;;;;5053769;28;20036;-67
2022/12/31 05:30:13;;;;;;;1.13;0.60;;;14.60;96.00;;;;;;5050938;28;20413;-69
2022/12/31 05:32:39;;;;;;;2.72;0.80;;;14.60;95.60;;;;;;5053688;28;20055;-68
2022/12/31 05:35:06;;;;;;;2.00;0.70;;;14.70;95.70;;;;;;5052458;28;20028;-68
2022/12/31 05:37:32;;;;;;;1.02;0.60;;;14.60;95.70;;;;;;5050825;28;20418;-68
2022/12/31 05:39:57;;;;;;;1.50;0.70;;;14.60;95.50;;;;;;5040235;28;20037;-67
2022/12/31 05:42:26;;;;;;;1.38;0.60;;;14.60;95.60;;;;;;5045550;28;20036;-68
2022/12/31 05:44:52;;;;;;;1.35;0.63;;;14.60;95.50;;;;;;5044786;28;20048;-68
2022/12/31 05:47:17;;;;;;;1.48;0.50;;;14.70;95.40;;;;;;5040911;28;20022;-67
2022/12/31 05:49:43;;;;;;;1.27;0.60;;;14.80;94.80;;;;;;5043196;28;20324;-68
2022/12/31 05:52:09;;;;;;;3.42;0.70;;;14.80;94.80;;;;;;5051291;28;20044;-68
2022/12/31 05:54:35;;;;;;;0.82;0.50;;;14.70;95.00;;;;;;5043908;28;20132;-68
2022/12/31 05:57:01;;;;;;;1.15;0.60;;;14.70;95.20;;;;;;5052309;28;20029;-67
2022/12/31 05:59:27;;;;;;;0.88;0.50;;;14.80;94.70;;;;;;5050994;28;20048;-67
2022/12/31 06:01:52;;;;;;;1.80;0.70;;;14.80;94.70;;;;;;5045428;28;20032;-67
2022/12/31 06:04:18;;;;;;;2.15;0.50;;;14.70;94.80;;;;;;5049167;28;20114;-67
2022/12/31 06:06:43;;;;;;;1.73;0.80;;;14.70;94.60;;;;;;5048887;28;20036;-67
2022/12/31 06:09:09;;;;;;;0.80;0.50;;;14.80;94.40;;;;;;5035520;28;20032;-69
2022/12/31 06:11:35;;;;;;;1.58;0.60;;;14.80;94.40;;;;;;5052310;28;20472;-67
2022/12/31 06:14:00;;;;;;;1.00;0.60;;;14.70;94.60;;;;;;5048341;28;20031;-68
2022/12/31 06:16:26;;;;;;;1.15;0.70;;;14.70;94.80;;;;;;5047060;28;20055;-68
2022/12/31 06:18:52;;;;;;;10.40;5.43;;;14.50;95.40;;;;;;5045500;28;20033;-68
2022/12/31 06:21:19;;;;;;;25.98;11.50;;;14.30;96.20;;;;;;5045373;28;20468;-69
2022/12/31 06:23:45;;;;;;;14.35;8.27;;;14.10;96.70;;;;;;5048716;28;20029;-68
2022/12/31 06:26:11;;;;;;;6.07;3.22;;;14.10;96.70;;;;;;5051003;28;20021;-68
2022/12/31 06:28:36;;;;;;;14.07;7.82;;;14.00;96.90;;;;;;5044611;28;20493;-68
2022/12/31 06:31:04;;;;;;;10.10;5.53;;;13.80;97.50;;;;;;5043968;28;20437;-69
2022/12/31 06:33:30;;;;;;;3.00;0.80;;;13.80;97.50;;;;;;5045786;28;20029;-68
2022/12/31 06:36:00;;;;;;;1.58;0.90;;;13.80;97.30;;;;;;5044614;28;20053;-68
2022/12/31 06:38:27;;;;;;;1.95;1.00;;;13.90;97.30;;;;;;5047922;28;20108;-68
2022/12/31 06:40:53;;;;;;;4.78;1.60;;;13.80;97.40;;;;;;5046338;28;20029;-68
2022/12/31 06:43:19;;;;;;;3.20;1.20;;;13.70;97.50;;;;;;5047230;28;20029;-68
2022/12/31 06:45:45;;;;;;;1.70;0.80;;;13.80;97.30;;;;;;5047378;28;20322;-68
2022/12/31 06:48:10;;;;;;;4.75;1.95;;;13.90;97.00;;;;;;5049799;28;20039;-68
2022/12/31 06:50:37;;;;;;;10.48;5.13;;;14.00;96.80;;;;;;5050715;28;20025;-69
2022/12/31 06:53:03;;;;;;;5.40;3.17;;;13.90;97.00;;;;;;5043960;28;20428;-68
2022/12/31 06:55:29;;;;;;;1.75;0.70;;;13.90;97.00;;;;;;5046633;28;20041;-68
2022/12/31 06:57:55;;;;;;;1.73;0.70;;;14.20;96.20;;;;;;5048883;28;20469;-68
2022/12/31 07:00:21;;;;;;;1.42;0.85;;;14.20;95.90;;;;;;5052964;28;20108;-68
2022/12/31 07:03:05;;;;;;;0.95;0.60;;;14.30;95.50;;;;;;5046661;28;20043;-68
2022/12/31 07:05:38;;;;;;;;;;;14.30;95.40;;;;;;5044872;28;20433;-68
2022/12/31 07:08:24;;;;;;;1.55;0.70;;;14.30;95.60;;;;;;5055313;28;19954;-68
2022/12/31 07:11:17;;;;;;;1.35;0.80;;;14.30;95.50;;;;;;5052449;28;20340;-68
2022/12/31 07:13:45;;;;;;;1.75;0.80;;;14.30;95.50;;;;;;5053338;28;20453;-68
2022/12/31 07:16:38;;;;;;;1.33;0.80;;;14.20;95.40;;;;;;5050330;28;20029;-68
2022/12/31 07:19:26;;;;;;;1.88;0.60;;;14.20;95.40;;;;;;5052061;28;20132;-67
2022/12/31 07:21:54;;;;;;;3.20;0.70;;;14.30;95.20;;;;;;5045402;28;20295;-68
2022/12/31 07:24:20;;;;;;;2.75;0.70;;;14.30;95.30;;;;;;5033462;28;20072;-67
2022/12/31 07:27:18;;;;;;;2.17;0.70;;;14.20;95.30;;;;;;5035380;28;20108;-68
2022/12/31 07:29:57;;;;;;;1.50;0.70;;;14.40;94.90;;;;;;5044011;28;20049;-68
2022/12/31 07:32:38;;;;;;;2.45;0.80;;;14.40;94.70;;;;;;5038953;28;20533;-68
2022/12/31 07:35:20;;;;;;;2.13;0.90;;;14.30;94.70;;;;;;5027018;28;20160;-68
2022/12/31 07:37:53;;;;;;;1.67;0.63;;;14.30;94.90;;;;;;5035280;28;20048;-68
2022/12/31 07:40:48;;;;;;;1.00;0.70;;;14.40;94.70;;;;;;5037055;28;20033;-67
2022/12/31 07:43:55;;;;;;;2.53;0.75;;;14.40;94.50;;;;;;5045891;28;20033;-68
2022/12/31 07:46:46;;;;;;;1.38;0.80;;;14.20;95.10;;;;;;5030050;28;20041;-67
2022/12/31 07:49:12;;;;;;;1.98;0.73;;;14.00;95.70;;;;;;5046431;28;20421;-68
2022/12/31 07:51:38;;;;;;;1.60;0.60;;;13.90;96.10;;;;;;5039099;28;20036;-68
2022/12/31 07:54:05;;;;;;;2.58;0.77;;;13.90;96.00;;;;;;5026769;28;20021;-68
2022/12/31 07:56:31;;;;;;;1.67;0.75;;;14.20;95.00;;;;;;5031322;28;20033;-68
2022/12/31 07:59:19;;;;;;;1.40;0.65;;;14.30;94.70;;;;;;5035843;28;20033;-67
2022/12/31 08:01:47;;;;;;;2.60;0.80;;;14.40;94.10;;;;;;5038238;28;20025;-68
2022/12/31 08:05:06;;;;;;;1.45;0.73;;;14.40;94.30;;;;;;5047984;28;20029;-67
2022/12/31 08:07:54;;;;;;;2.60;0.70;;;14.40;94.30;;;;;;5048271;28;20068;-67
2022/12/31 08:10:51;;;;;;;2.60;0.70;;;14.40;94.30;;;;;;5050296;28;20306;-69
2022/12/31 08:13:17;;;;;;;1.88;0.80;;;14.50;94.00;;;;;;5045008;28;20145;-67
2022/12/31 08:15:43;;;;;;;2.08;0.90;;;14.50;93.50;;;;;;5048354;28;20124;-67
2022/12/31 08:18:09;;;;;;;4.90;0.80;;;14.60;93.60;;;;;;5054080;28;20114;-67
2022/12/31 08:20:47;;;;;;;3.30;0.80;;;14.60;93.40;;;;;;5049439;28;20040;-68
2022/12/31 08:23:32;;;;;;;1.52;0.60;;;14.60;93.50;;;;;;5048636;28;20130;-67
2022/12/31 08:26:20;;;;;;;1.35;0.70;;;14.80;92.70;;;;;;5051691;28;20131;-68
2022/12/31 08:28:56;;;;;;;1.20;0.70;;;14.80;92.30;;;;;;5051138;28;20047;-67
2022/12/31 08:31:28;;;;;;;1.83;0.80;;;15.00;91.90;;;;;;5048738;28;20469;-68
2022/12/31 08:34:10;;;;;;;1.65;0.70;;;15.10;91.70;;;;;;5051727;28;20029;-67
2022/12/31 08:36:40;;;;;;;1.35;0.60;;;15.20;91.80;;;;;;5051411;28;20017;-67
2022/12/31 08:39:17;;;;;;;1.55;0.60;;;15.40;91.10;;;;;;5051263;28;20457;-66
2022/12/31 08:41:53;;;;;;;1.55;0.70;;;15.80;89.90;;;;;;5052482;28;20025;-67
2022/12/31 08:44:38;;;;;;;1.10;0.63;;;16.30;88.10;;;;;;5047065;28;20056;-67
2022/12/31 08:47:12;;;;;;;;;;;16.40;88.00;;;;;;5055057;28;20021;-67
2022/12/31 08:49:41;;;;;;;4.63;0.70;;;16.30;88.60;;;;;;5051014;28;19912;-66
2022/12/31 08:52:18;;;;;;;1.45;0.70;;;16.50;88.10;;;;;;5052162;28;20032;-68
2022/12/31 08:54:44;;;;;;;2.28;0.70;;;16.90;86.40;;;;;;5052838;28;20033;-68
2022/12/31 08:57:25;;;;;;;1.40;0.60;;;17.20;85.50;;;;;;5050422;28;20035;-67
2022/12/31 08:59:50;;;;;;;2.75;0.70;;;17.50;84.80;;;;;;5057044;28;20069;-67
2022/12/31 09:02:24;;;;;;;1.88;0.70;;;17.00;84.80;;;;;;5051380;28;20021;-66
2022/12/31 09:04:59;;;;;;;1.80;0.60;;;16.70;86.40;;;;;;5045103;28;20131;-67
2022/12/31 09:07:36;;;;;;;2.55;0.80;;;16.30;86.70;;;;;;5055123;28;20083;-67
2022/12/31 09:10:24;;;;;;;2.38;0.77;;;16.10;87.60;;;;;;5050436;28;20027;-67
2022/12/31 09:13:15;;;;;;;2.70;0.80;;;15.90;88.00;;;;;;5049942;28;20104;-67
2022/12/31 09:15:47;;;;;;;2.63;0.70;;;16.00;88.10;;;;;;5048990;28;20040;-69
2022/12/31 09:18:13;;;;;;;2.15;0.75;;;16.10;87.90;;;;;;5053624;28;20033;-67
2022/12/31 09:20:43;;;;;;;1.50;0.60;;;16.10;87.30;;;;;;5023028;28;20025;-66
2022/12/31 09:23:09;;;;;;;0.60;0.50;;;16.10;87.40;;;;;;5026669;28;20033;-67
2022/12/31 09:25:40;;;;;;;2.28;0.73;;;16.40;86.80;;;;;;5030782;28;20046;-67
2022/12/31 09:28:13;;;;;;;1.85;1.00;;;16.50;86.50;;;;;;5032098;28;20417;-68
2022/12/31 09:30:49;;;;;;;2.55;0.98;;;16.90;84.90;;;;;;5027302;28;20013;-67
2022/12/31 09:33:35;;;;;;;2.05;0.77;;;17.30;84.20;;;;;;5029519;28;20326;-69
2022/12/31 09:36:05;;;;;;;2.45;0.80;;;17.80;83.10;;;;;;5029741;28;20026;-68
2022/12/31 09:38:51;;;;;;;3.10;0.70;;;17.90;82.20;;;;;;5024630;28;20053;-68
2022/12/31 09:41:50;;;;;;;1.52;0.70;;;17.90;82.30;;;;;;5032622;28;20056;-68
2022/12/31 09:44:45;;;;;;;0.93;0.70;;;18.00;81.70;;;;;;5030857;28;20029;-68
2022/12/31 09:47:23;;;;;;;3.08;0.93;;;18.00;81.00;;;;;;5024470;28;20433;-68
2022/12/31 09:50:07;;;;;;;1.08;0.57;;;18.10;80.80;;;;;;5028831;28;20033;-68
2022/12/31 09:53:01;;;;;;;2.33;0.70;;;17.70;82.30;;;;;;5030411;28;20362;-69
2022/12/31 09:55:53;;;;;;;3.28;0.70;;;18.00;81.20;;;;;;5031580;28;20041;-68
2022/12/31 09:58:37;;;;;;;1.27;0.68;;;17.90;81.80;;;;;;5041044;28;20048;-69
2022/12/31 10:01:24;;;;;;;1.20;0.70;;;18.10;80.90;;;;;;5025411;28;20097;-69
2022/12/31 10:04:19;;;;;;;2.38;0.70;;;18.20;80.60;;;;;;5046818;28;20034;-69
2022/12/31 10:06:54;;;;;;;2.40;0.70;;;18.50;81.10;;;;;;5029133;28;20444;-69
2022/12/31 10:09:32;;;;;;;1.52;0.60;;;18.80;79.70;;;;;;5028241;28;20053;-68
2022/12/31 10:12:30;;;;;;;2.70;0.80;;;18.90;78.80;;;;;;5042195;28;20025;-67
2022/12/31 10:15:33;;;;;;;2.53;0.80;;;18.80;79.10;;;;;;5025290;28;20059;-69
2022/12/31 10:18:27;;;;;;;20.38;11.48;;;19.20;78.70;;;;;;5017471;28;20082;-68
2022/12/31 10:21:26;;;;;;;1.08;0.70;;;19.80;77.00;;;;;;5022707;28;20120;-70
2022/12/31 10:24:23;;;;;;;1.05;0.60;;;19.20;77.20;;;;;;5026716;28;20026;-69
2022/12/31 10:26:58;;;;;;;3.25;1.00;;;19.10;78.20;;;;;;5027348;28;20048;-69
2022/12/31 10:29:46;;;;;;;1.88;0.50;;;18.90;78.30;;;;;;5036807;28;20380;-69
2022/12/31 10:32:17;;;;;;;1.70;0.80;;;18.70;78.40;;;;;;5028308;28;20027;-69
2022/12/31 10:34:58;;;;;;;2.45;0.88;;;18.50;78.80;;;;;;5026004;28;20034;-68
2022/12/31 10:37:47;;;;;;;2.13;0.90;;;18.60;78.90;;;;;;5031511;28;20056;-68
2022/12/31 10:40:16;;;;;;;1.80;0.70;;;18.60;78.80;;;;;;5033560;28;20179;-68
2022/12/31 10:43:09;;;;;;;0.93;0.50;;;18.70;78.60;;;;;;5033905;28;20039;-68
2022/12/31 10:46:08;;;;;;;2.67;0.90;;;18.80;78.80;;;;;;5029813;28;20029;-68
2022/12/31 10:49:04;;;;;;;2.67;0.80;;;18.90;78.20;;;;;;5035735;28;20021;-69
2022/12/31 10:51:56;;;;;;;1.27;0.68;;;18.90;78.00;;;;;;5031112;28;20017;-68
2022/12/31 10:54:43;;;;;;;2.03;0.80;;;19.00;77.90;;;;;;5033817;28;20053;-68
2022/12/31 10:57:28;;;;;;;1.08;0.60;;;19.10;78.00;;;;;;5030684;28;20058;-69
2022/12/31 11:00:09;;;;;;;2.17;0.80;;;19.20;77.10;;;;;;5032391;28;20418;-68
2022/12/31 11:03:21;;;;;;;1.00;0.60;;;19.10;77.50;;;;;;5032768;28;20300;-67
2022/12/31 11:06:08;;;;;;;1.65;0.52;;;19.10;77.20;;;;;;5035539;28;20091;-68
2022/12/31 11:09:11;;;;;;;2.40;0.63;;;19.20;77.40;;;;;;5042868;28;20037;-68
2022/12/31 11:11:54;;;;;;;1.73;0.70;;;19.10;78.30;;;;;;5031338;28;20060;-67
2022/12/31 11:14:39;;;;;;;2.65;0.80;;;19.20;78.50;;;;;;5031597;28;20036;-67
2022/12/31 11:17:26;;;;;;;0.70;0.50;;;19.50;76.90;;;;;;5032963;28;20117;-67
2022/12/31 11:20:40;;;;;;;0.95;0.50;;;19.30;76.70;;;;;;5033374;28;20029;-67
2022/12/31 11:23:25;;;;;;;2.45;0.90;;;19.20;77.30;;;;;;5017551;28;20426;-67
2022/12/31 11:26:31;;;;;;;1.35;0.60;;;19.10;76.90;;;;;;5027900;28;20057;-67
2022/12/31 11:29:17;;;;;;;1.13;0.68;;;19.20;76.90;;;;;;5028435;28;20033;-67
2022/12/31 11:32:08;;;;;;;1.77;0.70;;;19.20;76.20;;;;;;5030070;28;20033;-66
2022/12/31 11:34:36;;;;;;;2.95;0.70;;;19.20;76.50;;;;;;5033361;28;20037;-67
2022/12/31 11:37:24;;;;;;;1.50;0.60;;;18.90;76.60;;;;;;5034386;28;20033;-67
2022/12/31 11:40:28;;;;;;;1.40;0.75;;;19.00;77.40;;;;;;5031333;28;20355;-66
2022/12/31 11:43:12;;;;;;;3.50;0.60;;;19.10;76.60;;;;;;5029764;28;20410;-67
2022/12/31 11:45:37;;;;;;;;;;;19.20;76.30;;;;;;5028795;28;20038;-66
2022/12/31 11:48:33;;;;;;;2.58;0.50;;;19.20;76.40;;;;;;5031769;28;19916;-66
2022/12/31 11:51:23;;;;;;;1.52;0.60;;;19.30;76.80;;;;;;5051477;28;20049;-66
2022/12/31 11:54:12;;;;;;;8.40;0.70;;;19.70;75.80;;;;;;5031796;28;20048;-65
2022/12/31 11:56:44;;;;;;;1.95;0.63;;;19.70;75.50;;;;;;5033704;28;20304;-69
2022/12/31 11:59:12;;;;;;;1.63;0.70;;;19.70;74.90;;;;;;5027962;28;20025;-66
2022/12/31 12:01:53;;;;;;;3.58;0.77;;;19.70;75.00;;;;;;5034657;28;20021;-66
2022/12/31 12:04:20;;;;;;;0.85;0.40;;;19.70;74.80;;;;;;5031718;28;20029;-68
2022/12/31 12:06:45;;;;;;;1.50;0.50;;;19.80;74.50;;;;;;5038482;28;20051;-67
2022/12/31 12:09:17;;;;;;;1.70;0.70;;;19.80;74.80;;;;;;5037105;28;20018;-68
2022/12/31 12:11:43;;;;;;;1.05;0.52;;;19.90;74.50;;;;;;5036403;28;20113;-68
2022/12/31 12:14:32;;;;;;;0.90;0.50;;;19.80;74.10;;;;;;5033923;28;20093;-68
2022/12/31 12:16:58;;;;;;;0.82;0.45;;;19.70;74.30;;;;;;5032645;28;20021;-68
2022/12/31 12:19:26;;;;;;;0.90;0.52;;;19.60;74.60;;;;;;5036272;28;20105;-68
2022/12/31 12:21:53;;;;;;;1.25;0.55;;;19.50;74.50;;;;;;5033595;28;21535;-67
2022/12/31 12:24:21;;;;;;;1.00;0.57;;;19.40;74.80;;;;;;5032618;28;20120;-67
2022/12/31 12:26:47;;;;;;;0.95;0.50;;;19.40;75.30;;;;;;5036769;28;20077;-68
2022/12/31 12:29:22;;;;;;;2.13;0.60;;;19.40;75.20;;;;;;5033099;28;20018;-67
2022/12/31 12:31:55;;;;;;;1.05;0.50;;;19.30;74.90;;;;;;5034720;28;20026;-67
2022/12/31 12:34:26;;;;;;;1.05;0.60;;;19.20;75.20;;;;;;5030804;28;20297;-68
2022/12/31 12:36:51;;;;;;;0.90;0.52;;;19.20;75.10;;;;;;5027943;28;20026;-67
2022/12/31 12:39:26;;;;;;;2.42;0.60;;;19.20;75.10;;;;;;5032439;28;20033;-67
2022/12/31 12:42:11;;;;;;;2.47;0.50;;;19.30;75.50;;;;;;5030703;28;20458;-67
2022/12/31 12:44:38;;;;;;;0.90;0.52;;;19.40;74.80;;;;;;5028872;28;20037;-67
2022/12/31 12:47:14;;;;;;;0.93;0.52;;;19.20;75.00;;;;;;5030141;28;20410;-66
2022/12/31 12:49:45;;;;;;;2.05;0.60;;;19.10;75.20;;;;;;5030733;28;20033;-66
2022/12/31 12:52:50;;;;;;;0.85;0.60;;;18.80;76.00;;;;;;5029927;28;20156;-67
2022/12/31 12:55:19;;;;;;;;;;;18.70;76.30;;;;;;5029040;28;20037;-67
2022/12/31 12:58:06;;;;;;;0.63;0.50;;;18.60;76.50;;;;;;5031656;28;20312;-67
2022/12/31 13:01:00;;;;;;;2.20;0.68;;;18.50;77.20;;;;;;5023716;28;20326;-66
2022/12/31 13:03:49;;;;;;;1.33;0.60;;;18.50;76.60;;;;;;5029016;28;20029;-68
2022/12/31 13:06:53;;;;;;;0.43;0.38;;;18.40;76.90;;;;;;5031554;28;20299;-67
2022/12/31 13:09:33;;;;;;;0.90;0.50;;;18.40;76.80;;;;;;5023540;28;20040;-67
2022/12/31 13:12:18;;;;;;;1.02;0.40;;;18.40;76.50;;;;;;5031674;28;20029;-67
2022/12/31 13:15:04;;;;;;;0.95;0.50;;;18.40;76.40;;;;;;5026892;28;20504;-67
2022/12/31 13:17:29;;;;;;;0.90;0.50;;;18.30;76.80;;;;;;5044342;28;20061;-67
2022/12/31 13:20:06;;;;;;;2.90;0.60;;;18.30;76.50;;;;;;5030616;28;20049;-67
2022/12/31 13:23:00;;;;;;;1.95;0.60;;;18.30;76.50;;;;;;5032917;28;20041;-66
2022/12/31 13:25:51;;;;;;;0.50;0.40;;;18.30;76.70;;;;;;5033413;28;20057;-66
2022/12/31 13:28:23;;;;;;;1.63;0.70;;;18.20;76.70;;;;;;5033112;28;20017;-66
2022/12/31 13:30:53;;;;;;;0.90;0.50;;;18.20;76.80;;;;;;5029907;28;20301;-66
2022/12/31 13:33:24;;;;;;;0.75;0.50;;;18.10;76.60;;;;;;5030048;28;20021;-67
2022/12/31 13:35:56;;;;;;;0.47;0.47;;;18.20;76.50;;;;;;5033691;28;20037;-67